Aérodrome :
LOGIN :

S'inscrire | Disclaimer

   EN    FR    IT 

 










Légende :    VFR   VFR Marginal   IFR   IFR Intensif   IFR Très Intensif
Visi : 
Plafond : 
>= 8 km
>= 3000ft
5 à 8 km
1000 à 3000 ft
1500m à 5 km
500 à 1000 ft
800 à 1500m
200 à 500 ft
< 800m
< 200 ft
Symboles :   Orages  Brouillard  Fortes neiges  Fortes précipitations  Vent > 20 kt
SIGMETs :   Divers  Orages  Givrage  Turbulence  Onde Orograph.  Cendres Volcan.






- Altitude de l'aérodrome : 726 ft
- Code IATA : DIJ


LFSD - Dijon

DERNIER METAR :
  • 060600Z AUTO 00000KT 0650 R35/0800N FZFG VV/// M01/M01 Q1022

METARs EXPIRÉS :
  • 060530Z AUTO 00000KT 0550 R35/0650N FZFG VV/// M01/M01 Q1022
  • 060500Z AUTO 00000KT 0550 0500 R35/0650U FZFG VV/// M01/M01 Q1022
  • 060430Z AUTO 00000KT 0500 R35/0600N FZFG VV/// M01/M01 Q1022
  • 060400Z AUTO 25001KT 0500 0450 R35/0600N FZFG VV/// M01/M01 Q1023
  • 060330Z AUTO 28003KT 0500 R35/0650N FZFG VV/// M01/M01 Q1023

Prévision TAF périmée.



MET'MAP, la Météo Aéronautique d'un coup d'oeil ! - Copyright ORBIFLY Décembre 2007 - Disclaimer

ORBIFLY MET'MAP TEAM :

Programmation & Développement : Alexandra Zaïnal
Sur une idée originale de : Baudouin d'Aumeries
Assistance à la programmation : Marc-Olivier Méhu
Soutien technique & logistique : Manuel Goepfert

Contact : metmap@orbifly.com




SOURCES & CREDITS :

   NOAA